Capo Vado — IPWV — position and weather

sailwx.info

Track history (hours):
 
Tides and Currents Weather Stations Pressure Air Temp Water Temp Dewpoint Dewpoint Depression Visibility Wind Speed Wind Dir Waves Ship Positions

Capo Vado

Last reported at 2015-Apr-26 16:08 UTC. Time now 2015-Apr-28 00:31 UTC.
Position N 44°18' E 008°29'.

Length 30 m.

Type: Tug. MMSI: 247228400.

Date/timePositionNaut miles runAvg speedWind from/ knotsBaromVisibWave heightAir tempDewpointWater temp
2015-Apr-26 16:08N 44°18' E 008°29'0 0.8
2015-Apr-26 15:33N 44°18' E 008°30'2 1.9
2015-Apr-26 14:33N 44°17' E 008°28'0 0.1
2015-Apr-26 13:29N 44°17' E 008°28'1 0.7
2015-Apr-26 12:32N 44°16' E 008°28'3 0.4
2015-Apr-26 05:14N 44°18' E 008°29'0 0.0
2015-Apr-25 19:08N 44°18' E 008°29'0 0.0
2015-Apr-25 11:17N 44°18' E 008°29'0 0.0
2015-Apr-25 06:23N 44°18' E 008°29'2 1.9
2015-Apr-25 05:29N 44°17' E 008°29'0 0.1
2015-Apr-25 04:25N 44°17' E 008°29'2 0.8
2015-Apr-25 02:33N 44°18' E 008°29'0 0.0
2015-Apr-25 01:33N 44°18' E 008°29'0 0.0
2015-Apr-25 00:30N 44°18' E 008°29'0 0.0
2015-Apr-24 23:33N 44°18' E 008°29'0 0.0
2015-Apr-24 22:33N 44°18' E 008°29'0 0.0
2015-Apr-24 20:18N 44°18' E 008°29'0 0.0
2015-Apr-24 19:30N 44°18' E 008°29'0 0.0
2015-Apr-24 18:24N 44°18' E 008°29'0 0.0
2015-Apr-24 17:09N 44°18' E 008°29'0 0.0
2015-Apr-24 10:24N 44°18' E 008°29'0 0.0
2015-Apr-23 20:24N 44°18' E 008°29'0 0.0
2015-Apr-23 19:30N 44°18' E 008°29'0 0.0
2015-Apr-23 18:33N 44°18' E 008°29'0 0.0
2015-Apr-23 16:30N 44°18' E 008°29'0 0.0
2015-Apr-23 14:33N 44°18' E 008°29'0 0.0
2015-Apr-23 13:33N 44°18' E 008°29'2 2.1
2015-Apr-23 12:34N 44°17' E 008°28'0 0.0
2015-Apr-23 11:19N 44°17' E 008°28'0 0.2
2015-Apr-23 10:26N 44°17' E 008°28'2 1.9
2015-Apr-23 09:21N 44°18' E 008°29'0 0.0
2015-Apr-23 08:33N 44°18' E 008°29'0 0.0
2015-Apr-23 07:30N 44°18' E 008°29'0 0.0
2015-Apr-23 06:30N 44°18' E 008°29'0 0.0
2015-Apr-23 05:33N 44°18' E 008°29'0 0.0
2015-Apr-23 04:24N 44°18' E 008°29'0 0.0
2015-Apr-23 03:27N 44°18' E 008°29'0 0.0
2015-Apr-22 21:06N 44°18' E 008°29'0 0.0
2015-Apr-22 18:06N 44°18' E 008°29'0 0.0
2015-Apr-22 10:18N 44°18' E 008°29'2 0.6
2015-Apr-22 06:33N 44°17' E 008°28'0 0.3
2015-Apr-22 05:12N 44°17' E 008°28'2 0.5
2015-Apr-22 01:22N 44°18' E 008°29'0 0.0
2015-Apr-21 22:31N 44°18' E 008°29'0 0.0
2015-Apr-21 20:19N 44°18' E 008°29'0 0.0
2015-Apr-21 19:22N 44°18' E 008°29'0 0.0
2015-Apr-21 18:22N 44°18' E 008°29'0 0.0
2015-Apr-21 16:31N 44°18' E 008°29'0 0.0
2015-Apr-21 15:25N 44°18' E 008°29'0 0.0
2015-Apr-21 14:28N 44°18' E 008°29'0 0.0
2015-Apr-21 13:28N 44°18' E 008°29'0 0.0
2015-Apr-21 12:22N 44°18' E 008°29'0 0.0
2015-Apr-21 09:22N 44°18' E 008°29'0 0.0
2015-Apr-21 08:28N 44°18' E 008°29'0 0.3
2015-Apr-21 07:31N 44°19' E 008°29'0 0.3
2015-Apr-21 06:28N 44°18' E 008°29'0 0.0
2015-Apr-21 05:22N 44°18' E 008°29'0 0.0
2015-Apr-21 04:25N 44°18' E 008°29'0 0.0
2015-Apr-21 03:31N 44°18' E 008°29'0 0.0
2015-Apr-21 02:13N 44°18' E 008°29'0 0.0
2015-Apr-21 01:22N 44°18' E 008°29'0 0.0
2015-Apr-21 00:31N 44°18' E 008°29'0 0.0
2015-Apr-20 23:31N 44°18' E 008°29'0 0.0
2015-Apr-20 22:28N 44°18' E 008°29'0 0.0
2015-Apr-20 21:31N 44°18' E 008°29'0 0.0
2015-Apr-20 20:31N 44°18' E 008°29'0 0.0
2015-Apr-20 19:25N 44°18' E 008°29'0 0.0
2015-Apr-20 18:31N 44°18' E 008°29'0 0.0
2015-Apr-20 17:31N 44°18' E 008°29'0 0.0
2015-Apr-20 16:31N 44°18' E 008°29'0 0.0
2015-Apr-20 15:22N 44°18' E 008°29'0 0.0
2015-Apr-20 14:19N 44°18' E 008°29'0 0.0
2015-Apr-20 11:25N 44°18' E 008°29'0 0.0
2015-Apr-20 10:16N 44°18' E 008°29'0 0.0
2015-Apr-20 09:25N 44°18' E 008°29'0 0.0
2015-Apr-20 05:07N 44°18' E 008°29'0 0.0
2015-Apr-20 02:22N 44°18' E 008°29'0 0.0
2015-Apr-20 01:28N 44°18' E 008°29'1 0.0
2015-Apr-19 07:30N 44°19' E 008°30'0 0.3
2015-Apr-19 06:13N 44°19' E 008°31'1 0.1
2015-Apr-18 19:14N 44°18' E 008°29'0 0.0
2015-Apr-18 02:08N 44°18' E 008°29'0 0.0
2015-Apr-17 17:20N 44°18' E 008°29'0 0.0
2015-Apr-17 16:26N 44°18' E 008°29'0 0.0
2015-Apr-17 15:08N 44°18' E 008°29'0 0.0
2015-Apr-17 14:20N 44°18' E 008°29'0 0.0
2015-Apr-17 13:20N 44°18' E 008°29'1 0.8
2015-Apr-17 12:33N 44°18' E 008°29'2 1.4
2015-Apr-17 11:23N 44°17' E 008°28'0 0.3
2015-Apr-17 10:33N 44°17' E 008°28'2 2.2
2015-Apr-17 09:31N 44°19' E 008°29'0 0.1
2015-Apr-17 08:33N 44°18' E 008°29'0 0.0
2015-Apr-16 17:12N 44°18' E 008°29'  
Track history (hours):
 
Tides and Currents Weather Stations Pressure Air Temp Water Temp Dewpoint Dewpoint Depression Visibility Wind Speed Wind Dir Waves Ship Positions

Capo Vado

Last reported at 2015-Apr-26 16:08 UTC. Time now 2015-Apr-28 00:31 UTC.
Position N 44°18' E 008°29'.

Length 30 m.

Type: Tug. MMSI: 247228400.

Date/timePositionNaut miles runAvg speedWind from/ knotsBaromVisibWave heightAir tempDewpointWater temp
2015-Apr-26 16:08N 44°18' E 008°29'0 0.8
2015-Apr-26 15:33N 44°18' E 008°30'2 1.9
2015-Apr-26 14:33N 44°17' E 008°28'0 0.1
2015-Apr-26 13:29N 44°17' E 008°28'1 0.7
2015-Apr-26 12:32N 44°16' E 008°28'3 0.4
2015-Apr-26 05:14N 44°18' E 008°29'0 0.0
2015-Apr-25 19:08N 44°18' E 008°29'0 0.0
2015-Apr-25 11:17N 44°18' E 008°29'0 0.0
2015-Apr-25 06:23N 44°18' E 008°29'2 1.9
2015-Apr-25 05:29N 44°17' E 008°29'0 0.1
2015-Apr-25 04:25N 44°17' E 008°29'2 0.8
2015-Apr-25 02:33N 44°18' E 008°29'0 0.0
2015-Apr-25 01:33N 44°18' E 008°29'0 0.0
2015-Apr-25 00:30N 44°18' E 008°29'0 0.0
2015-Apr-24 23:33N 44°18' E 008°29'0 0.0
2015-Apr-24 22:33N 44°18' E 008°29'0 0.0
2015-Apr-24 20:18N 44°18' E 008°29'0 0.0
2015-Apr-24 19:30N 44°18' E 008°29'0 0.0
2015-Apr-24 18:24N 44°18' E 008°29'0 0.0
2015-Apr-24 17:09N 44°18' E 008°29'0 0.0
2015-Apr-24 10:24N 44°18' E 008°29'0 0.0
2015-Apr-23 20:24N 44°18' E 008°29'0 0.0
2015-Apr-23 19:30N 44°18' E 008°29'0 0.0
2015-Apr-23 18:33N 44°18' E 008°29'0 0.0
2015-Apr-23 16:30N 44°18' E 008°29'0 0.0
2015-Apr-23 14:33N 44°18' E 008°29'0 0.0
2015-Apr-23 13:33N 44°18' E 008°29'2 2.1
2015-Apr-23 12:34N 44°17' E 008°28'0 0.0
2015-Apr-23 11:19N 44°17' E 008°28'0 0.2
2015-Apr-23 10:26N 44°17' E 008°28'2 1.9
2015-Apr-23 09:21N 44°18' E 008°29'0 0.0
2015-Apr-23 08:33N 44°18' E 008°29'0 0.0
2015-Apr-23 07:30N 44°18' E 008°29'0 0.0
2015-Apr-23 06:30N 44°18' E 008°29'0 0.0
2015-Apr-23 05:33N 44°18' E 008°29'0 0.0
2015-Apr-23 04:24N 44°18' E 008°29'0 0.0
2015-Apr-23 03:27N 44°18' E 008°29'0 0.0
2015-Apr-22 21:06N 44°18' E 008°29'0 0.0
2015-Apr-22 18:06N 44°18' E 008°29'0 0.0
2015-Apr-22 10:18N 44°18' E 008°29'2 0.6
2015-Apr-22 06:33N 44°17' E 008°28'0 0.3
2015-Apr-22 05:12N 44°17' E 008°28'2 0.5
2015-Apr-22 01:22N 44°18' E 008°29'0 0.0
2015-Apr-21 22:31N 44°18' E 008°29'0 0.0
2015-Apr-21 20:19N 44°18' E 008°29'0 0.0
2015-Apr-21 19:22N 44°18' E 008°29'0 0.0
2015-Apr-21 18:22N 44°18' E 008°29'0 0.0
2015-Apr-21 16:31N 44°18' E 008°29'0 0.0
2015-Apr-21 15:25N 44°18' E 008°29'0 0.0
2015-Apr-21 14:28N 44°18' E 008°29'0 0.0
2015-Apr-21 13:28N 44°18' E 008°29'0 0.0
2015-Apr-21 12:22N 44°18' E 008°29'0 0.0
2015-Apr-21 09:22N 44°18' E 008°29'0 0.0
2015-Apr-21 08:28N 44°18' E 008°29'0 0.3
2015-Apr-21 07:31N 44°19' E 008°29'0 0.3
2015-Apr-21 06:28N 44°18' E 008°29'0 0.0
2015-Apr-21 05:22N 44°18' E 008°29'0 0.0
2015-Apr-21 04:25N 44°18' E 008°29'0 0.0
2015-Apr-21 03:31N 44°18' E 008°29'0 0.0
2015-Apr-21 02:13N 44°18' E 008°29'0 0.0
2015-Apr-21 01:22N 44°18' E 008°29'0 0.0
2015-Apr-21 00:31N 44°18' E 008°29'0 0.0
2015-Apr-20 23:31N 44°18' E 008°29'0 0.0
2015-Apr-20 22:28N 44°18' E 008°29'0 0.0
2015-Apr-20 21:31N 44°18' E 008°29'0 0.0
2015-Apr-20 20:31N 44°18' E 008°29'0 0.0
2015-Apr-20 19:25N 44°18' E 008°29'0 0.0
2015-Apr-20 18:31N 44°18' E 008°29'0 0.0
2015-Apr-20 17:31N 44°18' E 008°29'0 0.0
2015-Apr-20 16:31N 44°18' E 008°29'0 0.0
2015-Apr-20 15:22N 44°18' E 008°29'0 0.0
2015-Apr-20 14:19N 44°18' E 008°29'0 0.0
2015-Apr-20 11:25N 44°18' E 008°29'0 0.0
2015-Apr-20 10:16N 44°18' E 008°29'0 0.0
2015-Apr-20 09:25N 44°18' E 008°29'0 0.0
2015-Apr-20 05:07N 44°18' E 008°29'0 0.0
2015-Apr-20 02:22N 44°18' E 008°29'0 0.0
2015-Apr-20 01:28N 44°18' E 008°29'1 0.0
2015-Apr-19 07:30N 44°19' E 008°30'0 0.3
2015-Apr-19 06:13N 44°19' E 008°31'1 0.1
2015-Apr-18 19:14N 44°18' E 008°29'0 0.0
2015-Apr-18 02:08N 44°18' E 008°29'0 0.0
2015-Apr-17 17:20N 44°18' E 008°29'0 0.0
2015-Apr-17 16:26N 44°18' E 008°29'0 0.0
2015-Apr-17 15:08N 44°18' E 008°29'0 0.0
2015-Apr-17 14:20N 44°18' E 008°29'0 0.0
2015-Apr-17 13:20N 44°18' E 008°29'1 0.8
2015-Apr-17 12:33N 44°18' E 008°29'2 1.4
2015-Apr-17 11:23N 44°17' E 008°28'0 0.3
2015-Apr-17 10:33N 44°17' E 008°28'2 2.2
2015-Apr-17 09:31N 44°19' E 008°29'0 0.1
2015-Apr-17 08:33N 44°18' E 008°29'0 0.0
2015-Apr-16 17:12N 44°18' E 008°29'  

Dump ship's entire track history